Time;durP1;ratioP1;P1;durP2;ratioP2;P2;SDS_P1;SDS_P2;PMS_P1;PMS_P2;Temp;Humidity;BMP_temperature;BMP_pressure;BME280_temperature;BME280_humidity;BME280_pressure;Samples;Min_cycle;Max_cycle;Signal;HPM_P1;HPM_P2
2022/01/07 00:02:20;;;;;;;;;;;;;;;4.88;78.24;99656.44;5050148;28;20363;-88
2022/01/07 00:04:45;;;;;;;;;;;;;;;5.14;78.33;99661.84;5049197;28;19924;-88
2022/01/07 00:07:11;;;;;;;;;;;;;;;5.33;77.18;99664.53;5048740;28;19920;-88
2022/01/07 00:09:36;;;;;;;;;;;;;;;5.50;76.06;99677.69;5048114;28;19974;-89
2022/01/07 00:12:03;;;;;;;;;;;;;;;5.72;74.68;99676.09;5050426;28;19916;-88
2022/01/07 00:14:28;;;;;;;;;;;;;;;5.99;74.22;99683.19;5049479;28;19932;-88
2022/01/07 00:16:53;;;;;;;;;;;;;;;6.24;72.06;99692.00;5063315;28;19917;-90
2022/01/07 00:19:19;;;;;;;;;;;;;;;5.55;70.59;99697.81;5049195;28;19913;-88
2022/01/07 00:21:45;;;;;;;;;;;;;;;5.17;71.46;99702.81;5049735;28;19920;-88
2022/01/07 00:24:10;;;;;;;;;;;;;;;5.01;71.62;99697.47;5050077;28;19916;-89
2022/01/07 00:26:35;;;;;;;;;;;;;;;4.91;72.03;99697.38;5047838;28;20376;-88
2022/01/07 00:29:01;;;;;;;;;;;;;;;4.64;73.92;99707.59;5048599;28;20295;-89
2022/01/07 00:31:26;;;;;;;;;;;;;;;4.66;74.22;99703.28;5047514;28;20438;-88
2022/01/07 00:33:51;;;;;;;;;;;;;;;4.41;75.15;99714.34;5064173;28;19923;-89
2022/01/07 00:36:17;;;;;;;;;;;;;;;4.50;75.30;99714.44;5047586;28;19917;-88
2022/01/07 00:38:42;;;;;;;;;;;;;;;4.56;75.07;99717.13;5047991;28;19924;-87
2022/01/07 00:41:07;;;;;;;;;;;;;;;4.52;75.46;99720.56;5049860;28;20299;-86
2022/01/07 00:43:33;;;;;;;;;;;;;;;4.47;77.48;99722.25;5048399;28;19948;-87
2022/01/07 00:45:58;;;;;;;;;;;;;;;4.81;76.61;99725.19;5049819;28;19920;-87
2022/01/07 00:48:24;;;;;;;;;;;;;;;4.85;75.76;99734.81;5047319;28;19917;-87
2022/01/07 00:50:49;;;;;;;;;;;;;;;4.82;76.82;99735.66;5048276;28;19917;-88
2022/01/07 00:53:14;;;;;;;;;;;;;;;5.06;75.97;99744.56;5049684;28;20417;-87
2022/01/07 00:55:41;;;;;;;;;;;;;;;5.32;75.13;99742.13;5048299;28;19995;-90
2022/01/07 00:58:06;;;;;;;;;;;;;;;5.39;75.11;99743.03;5048994;28;19956;-90
2022/01/07 01:00:32;;;;;;;;;;;;;;;5.42;74.51;99750.06;5047938;28;19947;-88
2022/01/07 01:02:59;;;;;;;;;;;;;;;5.57;74.05;99753.63;5048112;28;20307;-88
2022/01/07 01:05:24;;;;;;;;;;;;;;;5.77;73.01;99767.72;5048368;28;20446;-88
2022/01/07 01:07:50;;;;;;;;;;;;;;;5.81;72.13;99766.84;5048075;28;19921;-88
2022/01/07 01:10:16;;;;;;;;;;;;;;;5.85;72.29;99769.50;5049315;28;19947;-88
2022/01/07 01:12:42;;;;;;;;;;;;;;;5.84;72.10;99772.09;5047534;28;19946;-88
2022/01/07 01:15:09;;;;;;;;;;;;;;;6.07;71.42;99773.16;5046627;28;19924;-88
2022/01/07 01:17:34;;;;;;;;;;;;;;;5.94;71.16;99768.69;5049023;28;20414;-89
2022/01/07 01:20:00;;;;;;;;;;;;;;;5.91;71.41;99766.91;5048844;28;19920;-88
2022/01/07 01:22:25;;;;;;;;;;;;;;;6.01;71.64;99764.38;5048782;28;20461;-89
2022/01/07 01:24:51;;;;;;;;;;;;;;;5.98;71.10;99769.59;5049190;28;20314;-89
2022/01/07 01:27:16;;;;;;;;;;;;;;;6.00;71.42;99762.66;5048902;28;19916;-88
2022/01/07 01:29:42;;;;;;;;;;;;;;;5.99;70.68;99751.28;5048681;28;19928;-88
2022/01/07 01:32:07;;;;;;;;;;;;;;;6.17;70.47;99749.63;5048829;28;20031;-88
2022/01/07 01:34:32;;;;;;;;;;;;;;;6.20;69.97;99732.16;5046644;28;20314;-88
2022/01/07 01:36:58;;;;;;;;;;;;;;;6.09;70.64;99739.13;5048880;28;19916;-89
2022/01/07 01:39:23;;;;;;;;;;;;;;;6.11;69.59;99732.13;5047983;28;20548;-88
2022/01/07 01:41:49;;;;;;;;;;;;;;;6.17;69.84;99737.38;5048637;28;19974;-88
2022/01/07 01:44:14;;;;;;;;;;;;;;;6.29;69.10;99741.81;5047319;28;20387;-90
2022/01/07 01:46:40;;;;;;;;;;;;;;;6.35;69.32;99738.31;5046903;28;19967;-89
2022/01/07 01:49:05;;;;;;;;;;;;;;;6.44;68.76;99743.56;5047238;28;19924;-88
2022/01/07 01:51:31;;;;;;;;;;;;;;;6.44;68.37;99738.34;5046223;28;20424;-88
2022/01/07 01:53:56;;;;;;;;;;;;;;;6.45;68.74;99733.09;5046591;28;19927;-89
2022/01/07 01:56:22;;;;;;;;;;;;;;;6.47;68.33;99735.72;5044777;28;20514;-89
2022/01/07 01:58:47;;;;;;;;;;;;;;;6.51;68.03;99739.25;5047046;28;19974;-88
2022/01/07 02:01:14;;;;;;;;;;;;;;;6.51;68.60;99741.88;5047560;28;19913;-88
2022/01/07 02:03:39;;;;;;;;;;;;;;;6.59;68.16;99756.72;5047447;28;19917;-89
2022/01/07 02:06:05;;;;;;;;;;;;;;;6.55;68.11;99748.84;5047413;28;19921;-88
2022/01/07 02:08:30;;;;;;;;;;;;;;;6.76;67.19;99755.88;5029905;28;19921;-88
2022/01/07 02:10:57;;;;;;;;;;;;;;;6.78;67.19;99759.38;5034800;28;19924;-88
2022/01/07 02:13:22;;;;;;;;;;;;;;;6.87;66.89;99762.00;5048198;28;19978;-87
2022/01/07 02:15:48;;;;;;;;;;;;;;;6.78;67.21;99762.88;5045254;28;19917;-88
2022/01/07 02:18:16;;;;;;;;;;;;;;;6.69;67.45;99770.75;5047771;28;19993;-88
2022/01/07 02:20:41;;;;;;;;;;;;;;;6.69;67.11;99765.50;5045540;28;20433;-87
2022/01/07 02:23:07;;;;;;;;;;;;;;;6.71;67.10;99760.25;5047858;28;19917;-86
2022/01/07 02:25:32;;;;;;;;;;;;;;;6.76;67.01;99775.09;5047403;28;19917;-88
2022/01/07 02:27:57;;;;;;;;;;;;;;;6.75;67.00;99772.47;5031324;28;19913;-88
2022/01/07 02:30:25;;;;;;;;;;;;;;;6.79;67.00;99771.63;5036966;28;20502;-90
2022/01/07 02:32:50;;;;;;;;;;;;;;;6.63;67.16;99784.69;5046340;28;19917;-88
2022/01/07 02:35:17;;;;;;;;;;;;;;;6.66;67.57;99782.94;5029412;28;19928;-87
2022/01/07 02:37:42;;;;;;;;;;;;;;;6.62;67.23;99779.44;5026291;28;19940;-90
2022/01/07 02:40:08;;;;;;;;;;;;;;;6.60;67.56;99782.06;5046499;28;20664;-88
2022/01/07 02:42:33;;;;;;;;;;;;;;;6.55;67.31;99786.44;5045694;28;19955;-88
2022/01/07 02:44:59;;;;;;;;;;;;;;;6.55;67.90;99788.16;5033919;28;19964;-88
2022/01/07 02:47:30;;;;;;;;;;;;;;;6.54;67.91;99786.44;5041014;28;19920;-88
2022/01/07 02:49:55;;;;;;;;;;;;;;;6.47;67.93;99782.03;5047539;28;19920;-89
2022/01/07 02:52:21;;;;;;;;;;;;;;;6.62;67.48;99787.31;5045383;28;20323;-90
2022/01/07 02:54:46;;;;;;;;;;;;;;;6.54;67.71;99786.44;5035652;28;19920;-87
2022/01/07 02:57:11;;;;;;;;;;;;;;;6.52;68.23;99790.75;5024720;28;19927;-89
2022/01/07 02:59:36;;;;;;;;;;;;;;;6.59;67.88;99789.91;5026133;28;19917;-89
2022/01/07 03:02:02;;;;;;;;;;;;;;;6.66;67.73;99798.66;5043144;28;19921;-88
2022/01/07 03:04:28;;;;;;;;;;;;;;;6.72;66.83;99790.81;5047166;28;20032;-88
2022/01/07 03:06:53;;;;;;;;;;;;;;;6.57;67.14;99796.91;5033130;28;20367;-88
2022/01/07 03:09:18;;;;;;;;;;;;;;;6.62;67.11;99800.41;5033652;28;19921;-90
2022/01/07 03:11:44;;;;;;;;;;;;;;;6.62;67.19;99806.53;5031612;28;20414;-90
2022/01/07 03:14:09;;;;;;;;;;;;;;;6.71;67.36;99812.69;5027429;28;19956;-89
2022/01/07 03:16:35;;;;;;;;;;;;;;;6.56;67.15;99809.13;5027374;28;19924;-88
2022/01/07 03:19:00;;;;;;;;;;;;;;;6.76;66.63;99821.44;5032199;28;19956;-88
2022/01/07 03:21:26;;;;;;;;;;;;;;;6.68;67.15;99836.28;5044913;28;20387;-91
2022/01/07 03:23:51;;;;;;;;;;;;;;;6.64;67.13;99830.13;5033942;28;20396;-86
2022/01/07 03:26:16;;;;;;;;;;;;;;;6.64;67.17;99832.75;5026269;28;19921;-87
2022/01/07 03:28:44;;;;;;;;;;;;;;;6.74;67.01;99838.91;5026275;28;20751;-88
2022/01/07 03:31:10;;;;;;;;;;;;;;;6.55;67.65;99840.56;5027224;28;19917;-88
2022/01/07 03:33:35;;;;;;;;;;;;;;;6.55;67.20;99831.00;5044232;28;20825;-88
2022/01/07 03:36:00;;;;;;;;;;;;;;;6.57;67.29;99839.72;5046625;28;20421;-89
2022/01/07 03:38:26;;;;;;;;;;;;;;;6.90;66.44;99845.06;5037270;28;19921;-87
2022/01/07 03:40:51;;;;;;;;;;;;;;;6.69;66.70;99851.09;5025665;28;20328;-89
2022/01/07 03:43:17;;;;;;;;;;;;;;;6.66;66.77;99851.09;5035123;28;20548;-88
2022/01/07 03:45:42;;;;;;;;;;;;;;;6.88;66.12;99855.53;5045793;28;19928;-86
2022/01/07 03:48:07;;;;;;;;;;;;;;;6.77;66.13;99860.75;5046274;28;19975;-86
2022/01/07 03:50:33;;;;;;;;;;;;;;;6.81;66.55;99870.41;5047501;28;19920;-84
2022/01/07 03:52:58;;;;;;;;;;;;;;;6.77;66.60;99870.38;5046756;28;19924;-83
2022/01/07 03:55:25;;;;;;;;;;;;;;;6.74;66.83;99873.00;5046926;28;19924;-84
2022/01/07 03:57:50;;;;;;;;;;;;;;;6.75;66.78;99872.09;5029085;28;19928;-84
2022/01/07 04:00:24;;;;;;;;;;;;;;;6.75;66.80;99877.34;5032365;28;19917;-85
2022/01/07 04:02:49;;;;;;;;;;;;;;;6.89;66.49;99878.28;5064663;28;20376;-84
2022/01/07 04:05:18;;;;;;;;;;;;;;;6.85;66.06;99881.75;5050237;28;19916;-85
2022/01/07 04:07:44;;;;;;;;;;;;;;;6.93;66.11;99887.91;5050566;28;20470;-86
2022/01/07 04:10:09;;;;;;;;;;;;;;;6.80;66.30;99887.00;5050354;28;19917;-90
2022/01/07 04:12:35;;;;;;;;;;;;;;;6.91;66.23;99888.78;5051242;28;19923;-92
2022/01/07 04:15:21;;;;;;;;;;;;;;;6.84;66.46;99889.63;5051283;28;20434;-91
2022/01/07 04:17:51;;;;;;;;;;;;;;;6.76;66.23;99898.31;5049403;28;20463;-88
2022/01/07 04:20:17;;;;;;;;;;;;;;;6.96;66.14;99911.50;5050430;28;19917;-85
2022/01/07 04:22:43;;;;;;;;;;;;;;;6.78;66.51;99911.44;5050335;28;19923;-86
2022/01/07 04:25:12;;;;;;;;;;;;;;;6.88;65.76;99915.00;5048047;28;19916;-85
2022/01/07 04:27:38;;;;;;;;;;;;;;;6.74;66.22;99913.19;5049104;28;19956;-88
2022/01/07 04:30:03;;;;;;;;;;;;;;;7.01;65.94;99911.53;5052156;28;19970;-88
2022/01/07 04:32:29;;;;;;;;;;;;;;;6.96;65.77;99911.50;5050740;28;19923;-89
2022/01/07 04:34:54;;;;;;;;;;;;;;;7.02;65.74;99913.28;5049130;28;19987;-85
2022/01/07 04:37:19;;;;;;;;;;;;;;;6.92;65.60;99903.63;5049687;28;20027;-85
2022/01/07 04:39:45;;;;;;;;;;;;;;;6.87;66.28;99911.47;5047873;28;19971;-86
2022/01/07 04:42:10;;;;;;;;;;;;;;;6.80;66.01;99923.69;5049614;28;20000;-85
2022/01/07 04:44:40;;;;;;;;;;;;;;;6.78;65.89;99919.31;5049132;28;19921;-85
2022/01/07 04:47:05;;;;;;;;;;;;;;;6.76;66.20;99929.78;5048797;28;19932;-85
2022/01/07 04:49:31;;;;;;;;;;;;;;;6.65;66.09;99925.38;5049583;28;19921;-84
2022/01/07 04:51:56;;;;;;;;;;;;;;;6.57;66.26;99927.97;5049412;28;19924;-84
2022/01/07 04:54:21;;;;;;;;;;;;;;;6.50;66.60;99924.44;5049422;28;19917;-85
2022/01/07 04:56:47;;;;;;;;;;;;;;;6.69;66.37;99935.00;5047188;28;20009;-84
2022/01/07 04:59:12;;;;;;;;;;;;;;;6.72;66.05;99937.63;5049062;28;19928;-85
2022/01/07 05:01:37;;;;;;;;;;;;;;;6.58;66.26;99943.72;5046563;28;20682;-85
2022/01/07 05:04:03;;;;;;;;;;;;;;;6.53;65.81;99936.69;5048997;28;20365;-84
2022/01/07 05:06:44;;;;;;;;;;;;;;;6.46;66.38;99954.13;5049046;28;19921;-84
2022/01/07 05:09:10;;;;;;;;;;;;;;;6.42;66.55;99953.22;5047148;28;19975;-84
2022/01/07 05:11:35;;;;;;;;;;;;;;;6.44;66.42;99955.84;5048679;28;20362;-88
2022/01/07 05:14:01;;;;;;;;;;;;;;;6.57;66.39;99959.44;5047177;28;19920;-86
2022/01/07 05:16:28;;;;;;;;;;;;;;;6.62;65.85;99966.44;5049247;28;19918;-84
2022/01/07 05:18:54;;;;;;;;;;;;;;;6.54;65.69;99967.28;5047043;28;20015;-82
2022/01/07 05:21:19;;;;;;;;;;;;;;;6.52;65.79;99971.59;5047680;28;19928;-82
2022/01/07 05:23:44;;;;;;;;;;;;;;;6.36;66.22;99983.75;5047266;28;19921;-83
2022/01/07 05:26:10;;;;;;;;;;;;;;;6.43;66.08;99990.78;5046991;28;19971;-82
2022/01/07 05:28:35;;;;;;;;;;;;;;;6.26;66.18;99988.06;5047096;28;19967;-84
2022/01/07 05:31:02;;;;;;;;;;;;;;;6.38;65.54;99995.09;5047405;28;19974;-82
2022/01/07 05:33:28;;;;;;;;;;;;;;;6.43;66.03;99996.03;5048115;28;19921;-83
2022/01/07 05:35:53;;;;;;;;;;;;;;;6.51;65.25;99996.94;5048464;28;20437;-82
2022/01/07 05:38:18;;;;;;;;;;;;;;;6.74;65.00;100004.09;5045693;28;19928;-83
2022/01/07 05:40:44;;;;;;;;;;;;;;;6.73;64.60;100002.31;5047283;28;19920;-84
2022/01/07 05:43:09;;;;;;;;;;;;;;;6.70;64.89;100002.31;5046690;28;19917;-82
2022/01/07 05:45:34;;;;;;;;;;;;;;;6.66;64.42;99996.19;5047141;28;19940;-82
2022/01/07 05:48:00;;;;;;;;;;;;;;;6.79;64.32;100010.22;5047407;28;19952;-83
2022/01/07 05:50:25;;;;;;;;;;;;;;;6.95;63.67;100008.53;5047167;28;19923;-82
2022/01/07 05:52:50;;;;;;;;;;;;;;;6.69;64.21;100014.56;5048645;28;20669;-84
2022/01/07 05:55:16;;;;;;;;;;;;;;;6.77;64.42;100006.72;5047046;28;19938;-84
2022/01/07 05:57:41;;;;;;;;;;;;;;;6.69;64.79;100011.03;5047530;28;19931;-84
2022/01/07 06:00:07;;;;;;;;;;;;;;;6.71;64.75;100004.06;5037996;28;19921;-83
2022/01/07 06:02:33;;;;;;;;;;;;;;;6.71;64.73;100010.19;5047723;28;19920;-82
2022/01/07 06:04:58;;;;;;;;;;;;;;;6.76;64.95;100012.81;5047810;28;19913;-83
2022/01/07 06:07:23;;;;;;;;;;;;;;;6.65;64.82;100019.75;5048058;28;19995;-83
2022/01/07 06:09:49;;;;;;;;;;;;;;;6.77;64.57;100017.22;5047898;28;19924;-83
2022/01/07 06:12:14;;;;;;;;;;;;;;;6.82;64.52;100018.97;5047334;28;19928;-83
2022/01/07 06:14:39;;;;;;;;;;;;;;;7.04;63.45;100019.09;5047612;28;19921;-84
2022/01/07 06:17:08;;;;;;;;;;;;;;;6.91;64.12;100022.53;5046850;28;20468;-85
2022/01/07 06:19:33;;;;;;;;;;;;;;;7.02;64.00;100028.69;5048019;28;19916;-86
2022/01/07 06:21:59;;;;;;;;;;;;;;;7.10;63.58;100033.97;5046470;28;19932;-85
2022/01/07 06:24:24;;;;;;;;;;;;;;;6.91;63.85;100033.88;5047645;28;20440;-89
2022/01/07 06:26:49;;;;;;;;;;;;;;;6.87;64.13;100036.50;5048615;28;19917;-88
2022/01/07 06:29:15;;;;;;;;;;;;;;;6.88;63.39;100040.88;5049618;28;19917;-87
2022/01/07 06:31:40;;;;;;;;;;;;;;;6.80;64.29;100048.69;5048405;28;19924;-84
2022/01/07 06:34:05;;;;;;;;;;;;;;;6.92;63.37;100035.66;5047077;28;19931;-83
2022/01/07 06:36:31;;;;;;;;;;;;;;;7.02;63.47;100043.56;5045768;28;19982;-84
2022/01/07 06:38:58;;;;;;;;;;;;;;;7.04;62.95;100044.44;5047155;28;19917;-84
2022/01/07 06:41:23;;;;;;;;;;;;;;;7.09;63.01;100053.19;5045202;28;19921;-85
2022/01/07 06:43:49;;;;;;;;;;;;;;;7.13;62.70;100062.84;5044805;28;19927;-83
2022/01/07 06:46:14;;;;;;;;;;;;;;;6.92;63.40;100066.22;5045311;28;19916;-84
2022/01/07 06:48:41;;;;;;;;;;;;;;;7.21;63.06;100070.75;5046954;28;19920;-82
2022/01/07 06:51:06;;;;;;;;;;;;;;;7.20;63.26;100072.53;5047010;28;19924;-83
2022/01/07 06:53:31;;;;;;;;;;;;;;;7.33;62.92;100071.69;5047000;28;19978;-82
2022/01/07 06:55:57;;;;;;;;;;;;;;;7.21;62.81;100076.00;5047294;28;19916;-82
2022/01/07 06:58:23;;;;;;;;;;;;;;;7.49;61.99;100072.66;5046614;28;20015;-86
2022/01/07 07:00:48;;;;;;;;;;;;;;;7.37;62.43;100080.47;5047500;28;20334;-84
2022/01/07 07:03:14;;;;;;;;;;;;;;;7.54;61.59;100072.66;5045181;28;20019;-84
2022/01/07 07:05:39;;;;;;;;;;;;;;;7.44;61.99;100076.97;5044768;28;19924;-83
2022/01/07 07:08:04;;;;;;;;;;;;;;;7.26;62.83;100067.31;5044412;28;19928;-81
2022/01/07 07:10:30;;;;;;;;;;;;;;;7.24;63.05;100074.28;5045389;28;19916;-85
2022/01/07 07:12:55;;;;;;;;;;;;;;;7.15;62.71;100076.84;5045597;28;19970;-85
2022/01/07 07:15:20;;;;;;;;;;;;;;;7.13;63.13;100075.97;5046299;28;19959;-84
2022/01/07 07:17:46;;;;;;;;;;;;;;;7.23;63.71;100069.91;5045601;28;19912;-84
2022/01/07 07:20:13;;;;;;;;;;;;;;;7.23;63.26;100064.66;5045373;28;19996;-85
2022/01/07 07:22:38;;;;;;;;;;;;;;;7.13;62.96;100066.34;5045260;28;19917;-84
2022/01/07 07:25:04;;;;;;;;;;;;;;;7.06;63.79;100061.06;5046483;28;20276;-84
2022/01/07 07:27:29;;;;;;;;;;;;;;;7.27;62.82;100062.91;5046240;28;20298;-83
2022/01/07 07:29:55;;;;;;;;;;;;;;;7.18;63.37;100058.50;5045906;28;19920;-86
2022/01/07 07:32:25;;;;;;;;;;;;;;;7.14;63.22;100059.38;5046329;28;19963;-83
2022/01/07 07:37:48;;;;;;;;;;;;;;;7.31;63.25;100060.31;5005529;28;19916;-84
2022/01/07 07:40:14;;;;;;;;;;;;;;;7.41;63.06;100068.22;5050531;28;20007;-85
2022/01/07 07:42:39;;;;;;;;;;;;;;;7.67;62.34;100063.94;5049654;28;20003;-83
2022/01/07 07:45:05;;;;;;;;;;;;;;;7.96;61.23;100067.50;5049786;28;19982;-87
2022/01/07 07:47:33;;;;;;;;;;;;;;;7.87;60.96;100058.72;5050250;28;19966;-85
2022/01/07 07:49:58;;;;;;;;;;;;;;;7.83;61.18;100058.72;5049978;28;20006;-87
2022/01/07 07:52:24;;;;;;;;;;;;;;;7.87;62.27;100061.34;5050080;28;19956;-87
2022/01/07 07:54:49;;;;;;;;;;;;;;;7.71;61.17;100056.97;5049867;28;19923;-87
2022/01/07 07:57:14;;;;;;;;;;;;;;;8.01;61.38;100061.38;5050756;28;20325;-84
2022/01/07 07:59:40;;;;;;;;;;;;;;;8.00;61.48;100062.25;5048497;28;19913;-85
2022/01/07 08:02:07;;;;;;;;;;;;;;;7.87;61.92;100066.59;5050027;28;19919;-83
2022/01/07 08:04:32;;;;;;;;;;;;;;;7.89;61.97;100062.25;5050241;28;19917;-85
2022/01/07 08:06:57;;;;;;;;;;;;;;;8.01;61.89;100071.00;5049932;28;20382;-86
2022/01/07 08:09:24;;;;;;;;;;;;;;;7.79;62.58;100068.34;5050466;28;20372;-85
2022/01/07 08:11:57;;;;;;;;;;;;;;;8.10;61.54;100071.03;5050354;28;20370;-85
2022/01/07 08:17:07;;;;;;;;;;;;;;;8.20;62.12;100066.63;5050759;28;19923;-86
2022/01/07 08:19:34;;;;;;;;;;;;;;;8.16;61.73;100063.16;5049925;28;19917;-87
2022/01/07 08:21:59;;;;;;;;;;;;;;;8.27;62.10;100075.44;5049822;28;19924;-86
2022/01/07 08:24:25;;;;;;;;;;;;;;;8.27;61.50;100076.28;5049568;28;19917;-86
2022/01/07 08:26:50;;;;;;;;;;;;;;;8.26;61.29;100069.28;5049158;28;20375;-86
2022/01/07 08:29:16;;;;;;;;;;;;;;;8.19;61.65;100073.66;5049758;28;19967;-85
2022/01/07 08:36:52;;;;;;;;;;;;;;;8.49;61.15;100079.81;5049224;28;19915;-85
2022/01/07 08:39:17;;;;;;;;;;;;;;;8.31;60.23;100077.16;5049718;28;19921;-86
2022/01/07 08:41:43;;;;;;;;;;;;;;;8.21;60.10;100077.16;5049418;28;19912;-86
2022/01/07 08:44:10;;;;;;;;;;;;;;;8.38;59.97;100082.41;5046874;28;19943;-85
2022/01/07 08:46:36;;;;;;;;;;;;;;;8.56;59.60;100080.72;5048705;28;20533;-86
2022/01/07 08:49:02;;;;;;;;;;;;;;;8.78;58.88;100078.94;5047164;28;19947;-86
2022/01/07 08:51:28;;;;;;;;;;;;;;;8.55;59.16;100073.69;5049863;28;19916;-85
2022/01/07 08:53:54;;;;;;;;;;;;;;;8.53;59.41;100078.09;5049115;28;19916;-85
2022/01/07 08:56:23;;;;;;;;;;;;;;;8.55;58.89;100073.69;5048983;28;19913;-85
2022/01/07 08:58:49;;;;;;;;;;;;;;;8.81;58.24;100073.66;5049402;28;19936;-86
2022/01/07 09:01:15;;;;;;;;;;;;;;;8.75;57.99;100066.66;5049673;28;19917;-87
2022/01/07 09:03:41;;;;;;;;;;;;;;;8.80;58.29;100065.78;5049424;28;19916;-85
2022/01/07 09:06:06;;;;;;;;;;;;;;;8.78;57.92;100064.00;5049598;28;19999;-86
2022/01/07 09:08:31;;;;;;;;;;;;;;;8.92;57.98;100076.28;5049309;28;20489;-86
2022/01/07 09:10:57;;;;;;;;;;;;;;;9.14;58.80;100059.56;5049180;28;20333;-87
2022/01/07 09:13:22;;;;;;;;;;;;;;;9.01;57.41;100065.72;5049668;28;19918;-86
2022/01/07 09:15:47;;;;;;;;;;;;;;;8.77;57.79;100058.75;5047654;28;19956;-85
2022/01/07 09:18:14;;;;;;;;;;;;;;;8.86;57.51;100055.25;5049027;28;19944;-85
2022/01/07 09:20:40;;;;;;;;;;;;;;;8.97;57.49;100056.06;5049329;28;19917;-86
2022/01/07 09:23:06;;;;;;;;;;;;;;;8.96;56.58;100052.59;5048484;28;19917;-85
2022/01/07 09:25:31;;;;;;;;;;;;;;;9.17;57.44;100050.75;5049089;28;19936;-86
2022/01/07 09:27:56;;;;;;;;;;;;;;;9.41;57.49;100048.94;5049177;28;19936;-86
2022/01/07 09:30:22;;;;;;;;;;;;;;;9.35;56.37;100052.44;5049425;28;19917;-86
2022/01/07 09:32:47;;;;;;;;;;;;;;;9.37;55.93;100048.03;5048485;28;20302;-85
2022/01/07 09:35:14;;;;;;;;;;;;;;;9.52;56.52;100044.47;5049499;28;19974;-88
2022/01/07 09:37:40;;;;;;;;;;;;;;;9.50;55.83;100044.47;5048937;28;19917;-85
2022/01/07 09:40:05;;;;;;;;;;;;;;;9.53;56.42;100048.88;5048921;28;20465;-85
2022/01/07 09:42:31;;;;;;;;;;;;;;;9.54;56.20;100042.69;5048888;28;19978;-86
2022/01/07 09:44:56;;;;;;;;;;;;;;;9.68;55.52;100043.50;5048413;28;19974;-84
2022/01/07 09:47:22;;;;;;;;;;;;;;;9.55;55.18;100044.47;5047785;28;20906;-85
2022/01/07 09:49:48;;;;;;;;;;;;;;;9.56;55.26;100042.69;5047601;28;19913;-85
2022/01/07 09:52:13;;;;;;;;;;;;;;;9.56;55.09;100045.31;5046794;28;19920;-82
2022/01/07 09:54:39;;;;;;;;;;;;;;;9.77;56.52;100039.06;5047508;28;19923;-86
2022/01/07 09:57:06;;;;;;;;;;;;;;;9.59;54.87;100043.56;5047291;28;19916;-86
2022/01/07 09:59:35;;;;;;;;;;;;;;;9.84;55.03;100039.00;5046993;28;19916;-85
2022/01/07 10:02:05;;;;;;;;;;;;;;;10.03;53.84;100039.75;5027578;28;19967;-86
2022/01/07 10:04:39;;;;;;;;;;;;;;;10.03;53.93;100039.75;5027409;28;19917;-84
2022/01/07 10:07:13;;;;;;;;;;;;;;;9.91;53.93;100041.59;5039956;28;20440;-84
2022/01/07 10:09:39;;;;;;;;;;;;;;;10.21;53.67;100043.16;5046531;28;19921;-83
2022/01/07 10:12:06;;;;;;;;;;;;;;;9.85;54.10;100034.59;5045961;28;19917;-84
2022/01/07 10:14:32;;;;;;;;;;;;;;;9.91;54.39;100039.84;5047645;28;20390;-83
2022/01/07 10:16:58;;;;;;;;;;;;;;;9.90;54.83;100034.56;5047000;28;20014;-82
2022/01/07 10:19:40;;;;;;;;;;;;;;;9.93;54.79;100034.56;5046166;28;19920;-84
2022/01/07 10:22:05;;;;;;;;;;;;;;;9.86;54.91;100033.72;5047427;28;19936;-84
2022/01/07 10:24:31;;;;;;;;;;;;;;;10.02;58.58;100027.47;5047476;28;20360;-83
2022/01/07 10:27:10;;;;;;;;;;;;;;;9.90;60.87;100031.94;5046769;28;19916;-84
2022/01/07 10:29:39;;;;;;;;;;;;;;;9.73;61.29;100027.69;5046896;28;19912;-84
2022/01/07 10:32:20;;;;;;;;;;;;;;;9.30;62.98;100023.50;5047351;28;20040;-85
2022/01/07 10:35:06;;;;;;;;;;;;;;;9.01;63.27;100022.75;5046973;28;20086;-84
2022/01/07 10:37:32;;;;;;;;;;;;;;;8.79;64.33;100022.81;5045758;28;19916;-82
2022/01/07 10:39:57;;;;;;;;;;;;;;;8.74;65.65;100025.47;5046415;28;20472;-84
2022/01/07 10:42:23;;;;;;;;;;;;;;;8.60;67.01;100024.59;5047004;28;19916;-84
2022/01/07 10:45:02;;;;;;;;;;;;;;;8.54;67.20;100027.22;5045190;28;20008;-85
2022/01/07 10:47:29;;;;;;;;;;;;;;;8.49;66.86;100024.59;5046263;28;19921;-83
2022/01/07 10:50:12;;;;;;;;;;;;;;;8.63;66.41;100027.22;5046319;28;19912;-84
2022/01/07 10:52:38;;;;;;;;;;;;;;;8.89;65.05;100018.41;5046303;28;19919;-83
2022/01/07 10:55:14;;;;;;;;;;;;;;;8.92;65.45;100021.88;5046462;28;19909;-83
2022/01/07 10:57:43;;;;;;;;;;;;;;;9.15;63.09;100020.94;5046150;28;20325;-84
2022/01/07 11:00:11;;;;;;;;;;;;;;;9.34;63.95;100011.19;5045976;28;20448;-83
2022/01/07 11:02:36;;;;;;;;;;;;;;;9.27;63.15;100012.13;5046622;28;19984;-84
2022/01/07 11:05:02;;;;;;;;;;;;;;;9.35;63.22;100012.09;5046247;28;19963;-82
2022/01/07 11:07:30;;;;;;;;;;;;;;;9.66;62.31;100012.78;5045363;28;19920;-83
2022/01/07 11:09:56;;;;;;;;;;;;;;;9.74;61.85;100018.88;5046553;28;19917;-84
2022/01/07 11:12:22;;;;;;;;;;;;;;;9.70;61.45;100008.38;5046475;28;19920;-85
2022/01/07 11:14:48;;;;;;;;;;;;;;;9.65;61.77;100013.66;5046107;28;19908;-84
2022/01/07 11:17:20;;;;;;;;;;;;;;;9.56;61.67;100013.72;5045300;28;19909;-84
2022/01/07 11:19:48;;;;;;;;;;;;;;;9.59;61.50;100017.22;5046047;28;20039;-82
2022/01/07 11:22:14;;;;;;;;;;;;;;;9.46;61.97;100018.16;5045646;28;19941;-83
2022/01/07 11:24:48;;;;;;;;;;;;;;;9.37;62.21;100016.44;5045822;28;19913;-83
2022/01/07 11:27:16;;;;;;;;;;;;;;;9.37;61.70;100013.81;5046069;28;20282;-82
2022/01/07 11:29:52;;;;;;;;;;;;;;;9.46;61.56;100008.50;5046130;28;19944;-82
2022/01/07 11:32:37;;;;;;;;;;;;;;;9.24;62.22;100007.75;5045904;28;20358;-81
2022/01/07 11:35:18;;;;;;;;;;;;;;;9.12;63.38;100006.03;5045645;28;19993;-82
2022/01/07 11:37:45;;;;;;;;;;;;;;;9.40;63.86;99999.78;5046101;28;19913;-81
2022/01/07 11:40:31;;;;;;;;;;;;;;;9.65;62.07;100004.03;5044160;28;20345;-84
2022/01/07 11:43:04;;;;;;;;;;;;;;;9.63;62.90;100008.41;5044777;28;20027;-82
2022/01/07 11:45:30;;;;;;;;;;;;;;;9.32;63.91;100008.56;5044932;28;19912;-83
2022/01/07 11:48:09;;;;;;;;;;;;;;;9.25;64.13;100003.34;5045597;28;20259;-84
2022/01/07 11:50:49;;;;;;;;;;;;;;;9.05;64.33;100006.06;5042847;28;19931;-83
2022/01/07 11:53:15;;;;;;;;;;;;;;;9.12;63.29;100007.78;5043788;28;19916;-83
2022/01/07 11:55:41;;;;;;;;;;;;;;;8.93;63.30;100005.22;5044281;28;19913;-83
2022/01/07 11:58:11;;;;;;;;;;;;;;;8.80;63.57;99998.25;5045445;28;20027;-84
2022/01/07 12:00:49;;;;;;;;;;;;;;;8.87;62.98;99997.34;5045146;28;19964;-83
2022/01/07 12:03:32;;;;;;;;;;;;;;;8.78;63.37;100002.66;5045094;28;19909;-81
2022/01/07 12:05:58;;;;;;;;;;;;;;;8.90;64.06;99999.97;5043032;28;19931;-81
2022/01/07 12:08:37;;;;;;;;;;;;;;;8.88;63.64;100000.84;5044480;28;20430;-83
2022/01/07 12:11:09;;;;;;;;;;;;;;;8.79;64.20;100007.03;5044766;28;19912;-83
2022/01/07 12:13:40;;;;;;;;;;;;;;;8.75;63.66;100014.03;5044299;28;19917;-83
2022/01/07 12:16:06;;;;;;;;;;;;;;;8.84;63.71;100009.66;5044393;28;19977;-83
2022/01/07 12:18:33;;;;;;;;;;;;;;;8.62;64.42;100024.59;5043499;28;19919;-81
2022/01/07 12:20:58;;;;;;;;;;;;;;;8.71;64.55;100022.84;5048922;28;20692;-81
2022/01/07 12:23:24;;;;;;;;;;;;;;;8.53;64.82;100025.50;5047678;28;19913;-83
2022/01/07 12:25:50;;;;;;;;;;;;;;;8.68;65.31;100025.47;5047882;28;19919;-82
2022/01/07 12:28:16;;;;;;;;;;;;;;;8.57;65.28;100022.88;5045896;28;19913;-82
2022/01/07 12:30:43;;;;;;;;;;;;;;;8.41;65.19;100023.72;5048135;28;19932;-87
2022/01/07 12:33:09;;;;;;;;;;;;;;;8.66;64.68;100024.56;5048999;28;19915;-81
2022/01/07 12:35:34;;;;;;;;;;;;;;;8.73;63.81;100028.09;5048424;28;19919;-81
2022/01/07 12:38:08;;;;;;;;;;;;;;;8.68;63.67;100029.84;5049413;28;19963;-85
2022/01/07 12:40:33;;;;;;;;;;;;;;;8.92;63.19;100026.28;5047014;28;19938;-81
2022/01/07 12:42:59;;;;;;;;;;;;;;;8.82;63.66;100035.06;5047274;28;20432;-82
2022/01/07 12:45:24;;;;;;;;;;;;;;;8.83;63.88;100039.47;5047565;28;20768;-82
2022/01/07 12:47:52;;;;;;;;;;;;;;;8.66;64.00;100036.88;5047162;28;19919;-84
2022/01/07 12:50:17;;;;;;;;;;;;;;;8.56;65.48;100041.28;5047542;28;19908;-83
2022/01/07 12:52:43;;;;;;;;;;;;;;;8.38;65.87;100043.00;5047449;28;20378;-84
2022/01/07 12:55:11;;;;;;;;;;;;;;;8.51;65.88;100040.38;5047830;28;20768;-84
2022/01/07 12:57:46;;;;;;;;;;;;;;;8.40;66.09;100041.25;5046214;28;20301;-83
2022/01/07 13:00:23;;;;;;;;;;;;;;;8.41;66.66;100042.97;5047614;28;20353;-84